Augusta, West Virginia
Current Conditions -  °F | °C
As of 5:19 PM on Monday 26 Jan 2015 (Local Time) from KCBE Reporting Station
Overcast Overcast  
Wind Chill: -1°   Ceiling: 900
Heat Index: -1°   Visibility: 2.5mi
Dew Point: -2°   Wind: 0mph
Humidity: 93%   Direction: NA
Pressure: 29.78"   Gusts: NA
Location:  39.3°N, 78.64°W
Report Text: KCBE 262219Z AUTO 00000KT 2 1/2SM OVC009 M01/M02 A2978 RMK AO1
Loading
Personal Weather Stations






























Interactive Weather Map New forecast layout! Learn more

10-Day Weather Forecast

Advertisements
Track Severe Weather on mobile